sensor_id;sensor_type;location;lat;lon;timestamp;pressure;altitude;pressure_sealevel;temperature;humidity
6615;BME280;3343;42.896;23.912;2023-04-06T00:00:26;74228.41;;;-145.80;60.86
6615;BME280;3343;42.896;23.912;2023-04-06T00:02:53;74238.44;;;-145.80;61.33
6615;BME280;3343;42.896;23.912;2023-04-06T00:05:20;74240.44;;;-145.80;61.23
6615;BME280;3343;42.896;23.912;2023-04-06T00:07:48;74242.44;;;-145.80;60.22
6615;BME280;3343;42.896;23.912;2023-04-06T00:10:16;74238.44;;;-145.80;60.71
6615;BME280;3343;42.896;23.912;2023-04-06T00:12:44;74288.59;;;-145.80;61.83
6615;BME280;3343;42.896;23.912;2023-04-06T00:15:11;74280.56;;;-145.80;61.42
6615;BME280;3343;42.896;23.912;2023-04-06T00:17:38;74270.53;;;-145.80;61.58
6615;BME280;3343;42.896;23.912;2023-04-06T00:20:06;74262.50;;;-145.80;61.52
6615;BME280;3343;42.896;23.912;2023-04-06T00:22:33;74234.44;;;-145.80;60.18
6615;BME280;3343;42.896;23.912;2023-04-06T00:25:01;74212.34;;;-145.80;59.96
6615;BME280;3343;42.896;23.912;2023-04-06T00:27:27;74196.31;;;-145.80;59.28
6615;BME280;3343;42.896;23.912;2023-04-06T00:29:56;74170.22;;;-145.80;58.86
6615;BME280;3343;42.896;23.912;2023-04-06T00:32:23;74200.31;;;-145.80;58.41
6615;BME280;3343;42.896;23.912;2023-04-06T00:34:50;74220.38;;;-145.80;59.74
6615;BME280;3343;42.896;23.912;2023-04-06T00:37:17;74252.47;;;-145.80;59.47
6615;BME280;3343;42.896;23.912;2023-04-06T00:39:44;74244.47;;;-145.80;60.20
6615;BME280;3343;42.896;23.912;2023-04-06T00:42:12;74236.44;;;-145.80;60.26
6615;BME280;3343;42.896;23.912;2023-04-06T00:44:40;74220.38;;;-145.80;58.36
6615;BME280;3343;42.896;23.912;2023-04-06T00:47:08;74176.25;;;-145.80;58.26
6615;BME280;3343;42.896;23.912;2023-04-06T00:49:35;74174.25;;;-145.80;58.11
6615;BME280;3343;42.896;23.912;2023-04-06T00:52:02;74150.16;;;-145.80;57.23
6615;BME280;3343;42.896;23.912;2023-04-06T00:54:30;74158.19;;;-145.80;56.14
6615;BME280;3343;42.896;23.912;2023-04-06T00:56:57;74168.22;;;-145.80;57.10
6615;BME280;3343;42.896;23.912;2023-04-06T00:59:24;74208.34;;;-145.80;58.90
6615;BME280;3343;42.896;23.912;2023-04-06T01:01:51;74244.47;;;-145.80;59.97
6615;BME280;3343;42.896;23.912;2023-04-06T01:04:20;74250.47;;;-145.80;61.40
6615;BME280;3343;42.896;23.912;2023-04-06T01:06:49;74206.34;;;-145.80;60.20
6615;BME280;3343;42.896;23.912;2023-04-06T01:09:16;74178.25;;;-145.80;58.07
6615;BME280;3343;42.896;23.912;2023-04-06T01:11:44;74252.47;;;-145.80;60.60
6615;BME280;3343;42.896;23.912;2023-04-06T01:14:10;74274.56;;;-145.80;61.05
6615;BME280;3343;42.896;23.912;2023-04-06T01:16:40;74248.47;;;-145.80;60.64
6615;BME280;3343;42.896;23.912;2023-04-06T01:19:08;74256.50;;;-145.80;61.59
6615;BME280;3343;42.896;23.912;2023-04-06T01:21:36;74222.38;;;-145.80;60.89
6615;BME280;3343;42.896;23.912;2023-04-06T01:24:08;74192.28;;;-145.80;59.83
6615;BME280;3343;42.896;23.912;2023-04-06T01:26:35;74168.22;;;-145.80;59.19
6615;BME280;3343;42.896;23.912;2023-04-06T01:29:02;74170.22;;;-145.80;58.95
6615;BME280;3343;42.896;23.912;2023-04-06T01:31:29;74208.34;;;-145.80;59.43
6615;BME280;3343;42.896;23.912;2023-04-06T01:33:56;74196.31;;;-145.80;60.27
6615;BME280;3343;42.896;23.912;2023-04-06T01:36:23;74180.25;;;-145.80;59.93
6615;BME280;3343;42.896;23.912;2023-04-06T01:38:50;74164.22;;;-145.80;59.48
6615;BME280;3343;42.896;23.912;2023-04-06T01:41:18;74176.25;;;-145.80;60.25
6615;BME280;3343;42.896;23.912;2023-04-06T01:43:47;74142.13;;;-145.80;59.72
6615;BME280;3343;42.896;23.912;2023-04-06T01:46:14;74144.16;;;-145.80;59.30
6615;BME280;3343;42.896;23.912;2023-04-06T01:48:41;74270.53;;;-145.80;62.33
6615;BME280;3343;42.896;23.912;2023-04-06T01:51:08;74290.59;;;-145.80;63.45
6615;BME280;3343;42.896;23.912;2023-04-06T01:53:35;74258.50;;;-145.80;63.09
6615;BME280;3343;42.896;23.912;2023-04-06T01:56:02;74200.31;;;-145.80;61.73
6615;BME280;3343;42.896;23.912;2023-04-06T01:58:31;74154.19;;;-145.80;60.67
6615;BME280;3343;42.896;23.912;2023-04-06T02:00:59;74204.34;;;-145.80;61.37
6615;BME280;3343;42.896;23.912;2023-04-06T02:03:26;74170.22;;;-145.80;60.70
6615;BME280;3343;42.896;23.912;2023-04-06T02:05:53;74220.38;;;-145.80;61.74
6615;BME280;3343;42.896;23.912;2023-04-06T02:08:20;74230.41;;;-145.80;62.43
6615;BME280;3343;42.896;23.912;2023-04-06T02:10:46;74244.47;;;-145.80;61.60
6615;BME280;3343;42.896;23.912;2023-04-06T02:13:13;74254.47;;;-145.80;62.48
6615;BME280;3343;42.896;23.912;2023-04-06T02:15:42;74198.31;;;-145.80;61.53
6615;BME280;3343;42.896;23.912;2023-04-06T02:18:09;74180.25;;;-145.80;60.77
6615;BME280;3343;42.896;23.912;2023-04-06T02:20:36;74166.22;;;-145.80;60.27
6615;BME280;3343;42.896;23.912;2023-04-06T02:23:03;74136.13;;;-145.80;59.50
6615;BME280;3343;42.896;23.912;2023-04-06T02:25:29;74087.97;;;-145.80;58.88
6615;BME280;3343;42.896;23.912;2023-04-06T02:27:56;74079.94;;;-145.80;58.46
6615;BME280;3343;42.896;23.912;2023-04-06T02:30:23;74047.84;;;-145.80;57.99
6615;BME280;3343;42.896;23.912;2023-04-06T02:32:51;74017.75;;;-145.80;57.54
6615;BME280;3343;42.896;23.912;2023-04-06T02:35:18;74031.81;;;-145.80;57.64
6615;BME280;3343;42.896;23.912;2023-04-06T02:37:45;74007.72;;;-145.80;57.29
6615;BME280;3343;42.896;23.912;2023-04-06T02:40:13;73993.69;;;-145.80;57.05
6615;BME280;3343;42.896;23.912;2023-04-06T02:42:40;74003.72;;;-145.80;57.19
6615;BME280;3343;42.896;23.912;2023-04-06T02:45:08;74011.75;;;-145.80;57.15
6615;BME280;3343;42.896;23.912;2023-04-06T02:47:35;74017.75;;;-145.80;56.53
6615;BME280;3343;42.896;23.912;2023-04-06T02:50:04;73979.66;;;-145.80;56.60
6615;BME280;3343;42.896;23.912;2023-04-06T02:52:31;73995.69;;;-145.80;56.95
6615;BME280;3343;42.896;23.912;2023-04-06T02:54:58;73995.69;;;-145.80;56.55
6615;BME280;3343;42.896;23.912;2023-04-06T02:57:25;73975.63;;;-145.80;56.09
6615;BME280;3343;42.896;23.912;2023-04-06T02:59:52;73967.59;;;-145.80;55.98
6615;BME280;3343;42.896;23.912;2023-04-06T03:02:19;73987.66;;;-145.80;55.74
6615;BME280;3343;42.896;23.912;2023-04-06T03:04:46;73981.66;;;-145.80;55.80
6615;BME280;3343;42.896;23.912;2023-04-06T03:07:15;73957.56;;;-145.80;55.85
6615;BME280;3343;42.896;23.912;2023-04-06T03:09:42;74049.84;;;-145.80;57.09
6615;BME280;3343;42.896;23.912;2023-04-06T03:12:09;74067.91;;;-145.80;58.34
6615;BME280;3343;42.896;23.912;2023-04-06T03:14:35;74085.97;;;-145.80;59.10
6615;BME280;3343;42.896;23.912;2023-04-06T03:17:02;74079.94;;;-145.80;59.95
6615;BME280;3343;42.896;23.912;2023-04-06T03:19:29;74069.91;;;-145.80;59.43
6615;BME280;3343;42.896;23.912;2023-04-06T03:21:56;74031.81;;;-145.80;59.00
6615;BME280;3343;42.896;23.912;2023-04-06T03:24:25;74001.72;;;-145.80;59.05
6615;BME280;3343;42.896;23.912;2023-04-06T03:26:52;74019.75;;;-145.80;59.39
6615;BME280;3343;42.896;23.912;2023-04-06T03:29:18;74037.81;;;-145.80;59.81
6615;BME280;3343;42.896;23.912;2023-04-06T03:31:45;74009.72;;;-145.80;59.06
6615;BME280;3343;42.896;23.912;2023-04-06T03:34:12;74041.84;;;-145.80;59.91
6615;BME280;3343;42.896;23.912;2023-04-06T03:36:39;74029.78;;;-145.80;58.73
6615;BME280;3343;42.896;23.912;2023-04-06T03:39:06;74005.72;;;-145.80;58.76
6615;BME280;3343;42.896;23.912;2023-04-06T03:41:35;73983.66;;;-145.80;59.13
6615;BME280;3343;42.896;23.912;2023-04-06T03:44:02;73999.69;;;-145.80;59.35
6615;BME280;3343;42.896;23.912;2023-04-06T03:46:28;73987.66;;;-145.80;58.45
6615;BME280;3343;42.896;23.912;2023-04-06T03:48:56;73979.66;;;-145.80;57.86
6615;BME280;3343;42.896;23.912;2023-04-06T03:51:23;74033.81;;;-145.80;59.40
6615;BME280;3343;42.896;23.912;2023-04-06T03:53:50;74063.91;;;-145.80;59.97
6615;BME280;3343;42.896;23.912;2023-04-06T03:56:17;74055.88;;;-145.80;59.62
6615;BME280;3343;42.896;23.912;2023-04-06T03:58:45;74037.81;;;-145.80;59.81
6615;BME280;3343;42.896;23.912;2023-04-06T04:01:16;74051.88;;;-145.80;59.74
6615;BME280;3343;42.896;23.912;2023-04-06T04:03:43;74025.78;;;-145.80;59.75
6615;BME280;3343;42.896;23.912;2023-04-06T04:06:10;74011.75;;;-145.80;59.70
6615;BME280;3343;42.896;23.912;2023-04-06T04:08:37;73991.69;;;-145.80;59.27
6615;BME280;3343;42.896;23.912;2023-04-06T04:11:04;73987.66;;;-145.80;59.29
6615;BME280;3343;42.896;23.912;2023-04-06T04:13:31;73971.63;;;-145.80;58.80
6615;BME280;3343;42.896;23.912;2023-04-06T04:15:59;73959.59;;;-145.80;58.66
6615;BME280;3343;42.896;23.912;2023-04-06T04:18:26;74005.72;;;-145.80;58.19
6615;BME280;3343;42.896;23.912;2023-04-06T04:20:53;73973.63;;;-145.80;57.94
6615;BME280;3343;42.896;23.912;2023-04-06T04:23:20;73995.69;;;-145.80;58.30
6615;BME280;3343;42.896;23.912;2023-04-06T04:25:47;74003.72;;;-145.80;58.65
6615;BME280;3343;42.896;23.912;2023-04-06T04:28:14;73997.69;;;-145.80;58.93
6615;BME280;3343;42.896;23.912;2023-04-06T04:30:40;73995.69;;;-145.80;58.74
6615;BME280;3343;42.896;23.912;2023-04-06T04:33:09;73971.63;;;-145.80;58.73
6615;BME280;3343;42.896;23.912;2023-04-06T04:35:35;73979.66;;;-145.80;58.23
6615;BME280;3343;42.896;23.912;2023-04-06T04:38:03;73963.59;;;-145.80;57.96
6615;BME280;3343;42.896;23.912;2023-04-06T04:40:30;73967.59;;;-145.80;57.77
6615;BME280;3343;42.896;23.912;2023-04-06T04:42:57;73971.63;;;-145.80;58.46
6615;BME280;3343;42.896;23.912;2023-04-06T04:45:24;73939.53;;;-145.80;58.23
6615;BME280;3343;42.896;23.912;2023-04-06T04:47:51;73937.50;;;-145.80;57.78
6615;BME280;3343;42.896;23.912;2023-04-06T04:50:19;73915.44;;;-145.80;57.88
6615;BME280;3343;42.896;23.912;2023-04-06T04:52:46;73913.44;;;-145.80;58.41
6615;BME280;3343;42.896;23.912;2023-04-06T04:55:13;73897.41;;;-145.80;58.06
6615;BME280;3343;42.896;23.912;2023-04-06T04:57:40;73873.31;;;-145.80;57.53
6615;BME280;3343;42.896;23.912;2023-04-06T05:00:08;73875.31;;;-145.80;56.57
6615;BME280;3343;42.896;23.912;2023-04-06T05:02:35;73861.28;;;-145.80;55.34
6615;BME280;3343;42.896;23.912;2023-04-06T05:05:02;73863.28;;;-145.80;52.93
6615;BME280;3343;42.896;23.912;2023-04-06T05:07:31;73847.25;;;-145.80;53.88
6615;BME280;3343;42.896;23.912;2023-04-06T05:09:58;73851.25;;;-145.80;53.36
6615;BME280;3343;42.896;23.912;2023-04-06T05:12:25;73853.25;;;-145.80;53.15
6615;BME280;3343;42.896;23.912;2023-04-06T05:14:53;73837.22;;;-145.80;51.91
6615;BME280;3343;42.896;23.912;2023-04-06T05:17:20;73871.31;;;-145.80;50.04
6615;BME280;3343;42.896;23.912;2023-04-06T05:19:47;73843.22;;;-145.80;50.14
6615;BME280;3343;42.896;23.912;2023-04-06T05:22:14;73823.16;;;-145.80;49.20
6615;BME280;3343;42.896;23.912;2023-04-06T05:24:44;73827.19;;;-145.80;50.46
6615;BME280;3343;42.896;23.912;2023-04-06T05:27:11;73855.25;;;-145.80;49.94
6615;BME280;3343;42.896;23.912;2023-04-06T05:29:38;73861.28;;;-145.80;50.29
6615;BME280;3343;42.896;23.912;2023-04-06T05:32:06;73879.34;;;-145.80;50.55
6615;BME280;3343;42.896;23.912;2023-04-06T05:34:33;73843.22;;;-145.80;49.63
6615;BME280;3343;42.896;23.912;2023-04-06T05:37:01;73847.25;;;-145.80;48.70
6615;BME280;3343;42.896;23.912;2023-04-06T05:39:28;73829.19;;;-145.80;49.18
6615;BME280;3343;42.896;23.912;2023-04-06T05:41:57;73809.13;;;-145.80;50.36
6615;BME280;3343;42.896;23.912;2023-04-06T05:44:24;73811.13;;;-145.80;48.63
6615;BME280;3343;42.896;23.912;2023-04-06T05:46:50;73799.09;;;-145.80;48.46
6615;BME280;3343;42.896;23.912;2023-04-06T05:49:18;73797.09;;;-145.80;48.93
6615;BME280;3343;42.896;23.912;2023-04-06T05:51:44;73803.13;;;-145.80;47.97
6615;BME280;3343;42.896;23.912;2023-04-06T05:54:12;73829.19;;;-145.80;49.25
6615;BME280;3343;42.896;23.912;2023-04-06T05:56:39;73819.16;;;-145.80;49.78
6615;BME280;3343;42.896;23.912;2023-04-06T05:59:07;73787.06;;;-145.80;49.24
6615;BME280;3343;42.896;23.912;2023-04-06T06:01:34;73811.13;;;-145.80;48.82
6615;BME280;3343;42.896;23.912;2023-04-06T06:04:01;73793.09;;;-145.80;48.19
6615;BME280;3343;42.896;23.912;2023-04-06T06:06:29;73795.09;;;-145.80;47.86
6615;BME280;3343;42.896;23.912;2023-04-06T06:08:56;73795.09;;;-145.80;47.86
6615;BME280;3343;42.896;23.912;2023-04-06T06:11:24;73775.03;;;-145.80;47.69
6615;BME280;3343;42.896;23.912;2023-04-06T06:13:51;73777.03;;;-145.80;47.14
6615;BME280;3343;42.896;23.912;2023-04-06T06:16:20;73758.97;;;-145.80;48.52
6615;BME280;3343;42.896;23.912;2023-04-06T06:18:47;73742.94;;;-145.80;47.70
6615;BME280;3343;42.896;23.912;2023-04-06T06:21:14;73742.94;;;-145.80;46.73
6615;BME280;3343;42.896;23.912;2023-04-06T06:23:42;73787.06;;;-145.80;47.63
6615;BME280;3343;42.896;23.912;2023-04-06T06:26:09;73825.19;;;-145.80;48.65
6615;BME280;3343;42.896;23.912;2023-04-06T06:28:36;73809.13;;;-145.80;49.56
6615;BME280;3343;42.896;23.912;2023-04-06T06:31:04;73767.00;;;-145.80;47.50
6615;BME280;3343;42.896;23.912;2023-04-06T06:33:32;73752.97;;;-145.80;48.25
6615;BME280;3343;42.896;23.912;2023-04-06T06:35:59;73765.00;;;-145.80;48.22
6615;BME280;3343;42.896;23.912;2023-04-06T06:38:26;73767.00;;;-145.80;48.07
6615;BME280;3343;42.896;23.912;2023-04-06T06:40:53;73740.94;;;-145.80;47.58
6615;BME280;3343;42.896;23.912;2023-04-06T06:43:20;73734.91;;;-145.80;47.31
6615;BME280;3343;42.896;23.912;2023-04-06T06:45:47;73722.88;;;-145.80;47.99
6615;BME280;3343;42.896;23.912;2023-04-06T06:48:14;73674.72;;;-145.80;47.59
6615;BME280;3343;42.896;23.912;2023-04-06T06:50:42;73652.66;;;-145.80;46.28
6615;BME280;3343;42.896;23.912;2023-04-06T06:53:09;73690.78;;;-145.80;44.77
6615;BME280;3343;42.896;23.912;2023-04-06T06:55:37;73700.81;;;-145.80;44.04
6615;BME280;3343;42.896;23.912;2023-04-06T06:58:04;73670.72;;;-145.80;44.26
6615;BME280;3343;42.896;23.912;2023-04-06T07:00:31;73630.59;;;-145.80;43.76
6615;BME280;3343;42.896;23.912;2023-04-06T07:02:58;73600.50;;;-145.80;43.37
6615;BME280;3343;42.896;23.912;2023-04-06T07:05:25;73614.56;;;-145.80;44.65
6615;BME280;3343;42.896;23.912;2023-04-06T07:07:54;73634.63;;;-145.80;42.99
6615;BME280;3343;42.896;23.912;2023-04-06T07:10:21;73658.69;;;-145.80;42.68
6615;BME280;3343;42.896;23.912;2023-04-06T07:12:48;73614.56;;;-145.80;42.20
6615;BME280;3343;42.896;23.912;2023-04-06T07:15:16;73580.47;;;-145.80;43.01
6615;BME280;3343;42.896;23.912;2023-04-06T07:17:43;73616.56;;;-145.80;42.34
6615;BME280;3343;42.896;23.912;2023-04-06T07:20:11;73592.50;;;-145.80;42.13
6615;BME280;3343;42.896;23.912;2023-04-06T07:22:38;73570.44;;;-145.80;42.17
6615;BME280;3343;42.896;23.912;2023-04-06T07:25:07;73574.44;;;-145.80;41.90
6615;BME280;3343;42.896;23.912;2023-04-06T07:27:35;73558.38;;;-145.80;42.42
6615;BME280;3343;42.896;23.912;2023-04-06T07:30:02;73510.25;;;-145.80;41.58
6615;BME280;3343;42.896;23.912;2023-04-06T07:32:29;73492.19;;;-145.80;41.78
6615;BME280;3343;42.896;23.912;2023-04-06T07:34:56;73510.25;;;-145.80;40.85
6615;BME280;3343;42.896;23.912;2023-04-06T07:37:24;73540.34;;;-145.80;41.42
6615;BME280;3343;42.896;23.912;2023-04-06T07:39:51;73516.28;;;-145.80;41.60
6615;BME280;3343;42.896;23.912;2023-04-06T07:42:19;73472.13;;;-145.80;42.44
6615;BME280;3343;42.896;23.912;2023-04-06T07:44:48;73426.00;;;-145.80;43.47
6615;BME280;3343;42.896;23.912;2023-04-06T07:47:15;73363.81;;;-145.80;40.62
6615;BME280;3343;42.896;23.912;2023-04-06T07:49:41;73323.72;;;-145.80;41.00
6615;BME280;3343;42.896;23.912;2023-04-06T07:52:08;73297.66;;;-145.80;38.67
6615;BME280;3343;42.896;23.912;2023-04-06T07:54:35;73367.84;;;-145.80;39.45
6615;BME280;3343;42.896;23.912;2023-04-06T07:57:02;73285.59;;;-145.80;40.45
6615;BME280;3343;42.896;23.912;2023-04-06T07:59:30;73225.44;;;-145.80;39.04
6615;BME280;3343;42.896;23.912;2023-04-06T08:01:57;73229.44;;;-145.80;37.06
6615;BME280;3343;42.896;23.912;2023-04-06T08:04:24;73297.66;;;-145.80;37.00
6615;BME280;3343;42.896;23.912;2023-04-06T08:06:51;73329.72;;;-145.80;38.67
6615;BME280;3343;42.896;23.912;2023-04-06T08:09:18;73289.63;;;-145.80;40.35
6615;BME280;3343;42.896;23.912;2023-04-06T08:11:45;73241.47;;;-145.80;38.65
6615;BME280;3343;42.896;23.912;2023-04-06T08:14:14;73157.25;;;-145.80;37.04
6615;BME280;3343;42.896;23.912;2023-04-06T08:16:42;73069.00;;;-145.80;37.30
6615;BME280;3343;42.896;23.912;2023-04-06T08:19:09;73016.84;;;-145.80;37.26
6615;BME280;3343;42.896;23.912;2023-04-06T08:21:36;73093.06;;;-145.80;35.36
6615;BME280;3343;42.896;23.912;2023-04-06T08:24:04;73075.03;;;-145.80;35.73
6615;BME280;3343;42.896;23.912;2023-04-06T08:26:31;73024.88;;;-145.80;35.73
6615;BME280;3343;42.896;23.912;2023-04-06T08:28:59;72950.69;;;-145.80;34.66
6615;BME280;3343;42.896;23.912;2023-04-06T08:31:26;72926.63;;;-145.80;34.07
6615;BME280;3343;42.896;23.912;2023-04-06T08:33:55;72880.50;;;-145.80;33.73
6615;BME280;3343;42.896;23.912;2023-04-06T08:36:21;72864.44;;;-145.80;33.59
6615;BME280;3343;42.896;23.912;2023-04-06T08:38:49;72928.63;;;-145.80;33.70
6615;BME280;3343;42.896;23.912;2023-04-06T08:41:17;72916.59;;;-145.80;35.21
6615;BME280;3343;42.896;23.912;2023-04-06T08:43:47;72876.47;;;-145.80;34.57
6615;BME280;3343;42.896;23.912;2023-04-06T08:46:15;73056.97;;;-145.80;33.82
6615;BME280;3343;42.896;23.912;2023-04-06T08:48:43;72968.72;;;-145.80;36.46
6615;BME280;3343;42.896;23.912;2023-04-06T08:51:11;72958.69;;;-145.80;36.58
6615;BME280;3343;42.896;23.912;2023-04-06T08:53:38;72928.63;;;-145.80;35.21
6615;BME280;3343;42.896;23.912;2023-04-06T08:56:07;72866.44;;;-145.80;33.97
6615;BME280;3343;42.896;23.912;2023-04-06T08:58:37;72838.38;;;-145.80;33.89
6615;BME280;3343;42.896;23.912;2023-04-06T09:01:07;72820.31;;;-145.80;33.46
6615;BME280;3343;42.896;23.912;2023-04-06T09:03:37;72832.34;;;-145.80;34.86
6615;BME280;3343;42.896;23.912;2023-04-06T09:06:05;72840.38;;;-145.80;34.40
6615;BME280;3343;42.896;23.912;2023-04-06T09:08:34;72830.34;;;-145.80;33.20
6615;BME280;3343;42.896;23.912;2023-04-06T09:11:02;72852.41;;;-145.80;34.70
6615;BME280;3343;42.896;23.912;2023-04-06T09:13:29;72814.31;;;-145.80;33.38
6615;BME280;3343;42.896;23.912;2023-04-06T09:16:01;72798.25;;;-145.80;34.09
6615;BME280;3343;42.896;23.912;2023-04-06T09:18:29;72798.25;;;-145.80;33.72
6615;BME280;3343;42.896;23.912;2023-04-06T09:20:59;72772.19;;;-145.80;33.89
6615;BME280;3343;42.896;23.912;2023-04-06T09:23:26;72880.50;;;-145.80;33.10
6615;BME280;3343;42.896;23.912;2023-04-06T09:26:08;72894.53;;;-145.80;33.88
6615;BME280;3343;42.896;23.912;2023-04-06T09:28:44;72896.53;;;-145.80;34.37
6615;BME280;3343;42.896;23.912;2023-04-06T09:31:12;72894.53;;;-145.80;34.72
6615;BME280;3343;42.896;23.912;2023-04-06T09:33:41;72922.59;;;-145.80;33.25
6615;BME280;3343;42.896;23.912;2023-04-06T09:36:08;72932.63;;;-145.80;34.38
6615;BME280;3343;42.896;23.912;2023-04-06T09:38:37;72894.53;;;-145.80;33.92
6615;BME280;3343;42.896;23.912;2023-04-06T09:41:06;72856.41;;;-145.80;34.21
6615;BME280;3343;42.896;23.912;2023-04-06T09:43:33;72844.38;;;-145.80;34.01
6615;BME280;3343;42.896;23.912;2023-04-06T09:46:00;72812.31;;;-145.80;33.93
6615;BME280;3343;42.896;23.912;2023-04-06T09:48:31;72812.31;;;-145.80;33.63
6615;BME280;3343;42.896;23.912;2023-04-06T09:51:03;72794.25;;;-145.80;32.80
6615;BME280;3343;42.896;23.912;2023-04-06T09:53:35;72796.25;;;-145.80;32.89
6615;BME280;3343;42.896;23.912;2023-04-06T09:56:08;72794.25;;;-145.80;33.27
6615;BME280;3343;42.896;23.912;2023-04-06T09:58:39;72764.16;;;-145.80;33.33
6615;BME280;3343;42.896;23.912;2023-04-06T10:01:10;72792.25;;;-145.80;31.92
6615;BME280;3343;42.896;23.912;2023-04-06T10:03:45;72826.34;;;-145.80;32.36
6615;BME280;3343;42.896;23.912;2023-04-06T10:06:19;72876.47;;;-145.80;31.93
6615;BME280;3343;42.896;23.912;2023-04-06T10:08:49;72876.47;;;-145.80;32.07
6615;BME280;3343;42.896;23.912;2023-04-06T10:11:18;72916.59;;;-145.80;32.24
6615;BME280;3343;42.896;23.912;2023-04-06T10:13:47;72948.66;;;-145.80;33.66
6615;BME280;3343;42.896;23.912;2023-04-06T10:16:15;72942.66;;;-145.80;34.18
6615;BME280;3343;42.896;23.912;2023-04-06T10:18:49;72890.50;;;-145.80;34.04
6615;BME280;3343;42.896;23.912;2023-04-06T10:21:20;72936.63;;;-145.80;34.08
6615;BME280;3343;42.896;23.912;2023-04-06T10:23:49;72978.75;;;-145.80;34.96
6615;BME280;3343;42.896;23.912;2023-04-06T10:26:20;73004.81;;;-145.80;35.41
6615;BME280;3343;42.896;23.912;2023-04-06T10:28:49;73040.94;;;-145.80;34.98
6615;BME280;3343;42.896;23.912;2023-04-06T10:31:23;73042.94;;;-145.80;35.72
6615;BME280;3343;42.896;23.912;2023-04-06T10:33:55;73000.81;;;-145.80;36.05
6615;BME280;3343;42.896;23.912;2023-04-06T10:36:23;72988.78;;;-145.80;35.58
6615;BME280;3343;42.896;23.912;2023-04-06T10:38:55;72962.72;;;-145.80;35.58
6615;BME280;3343;42.896;23.912;2023-04-06T10:41:24;72964.72;;;-145.80;34.88
6615;BME280;3343;42.896;23.912;2023-04-06T10:43:59;72956.69;;;-145.80;35.26
6615;BME280;3343;42.896;23.912;2023-04-06T10:46:28;72930.63;;;-145.80;35.60
6615;BME280;3343;42.896;23.912;2023-04-06T10:48:55;72934.63;;;-145.80;34.95
6615;BME280;3343;42.896;23.912;2023-04-06T10:51:25;72916.59;;;-145.80;35.00
6615;BME280;3343;42.896;23.912;2023-04-06T10:53:54;72924.59;;;-145.80;34.66
6615;BME280;3343;42.896;23.912;2023-04-06T10:56:24;72896.53;;;-145.80;34.88
6615;BME280;3343;42.896;23.912;2023-04-06T10:58:54;72870.47;;;-145.80;35.29
6615;BME280;3343;42.896;23.912;2023-04-06T11:01:23;72882.50;;;-145.80;33.88
6615;BME280;3343;42.896;23.912;2023-04-06T11:03:53;72906.56;;;-145.80;34.66
6615;BME280;3343;42.896;23.912;2023-04-06T11:06:22;72924.59;;;-145.80;34.95
6615;BME280;3343;42.896;23.912;2023-04-06T11:08:49;72936.63;;;-145.80;34.93
6615;BME280;3343;42.896;23.912;2023-04-06T11:11:17;72934.63;;;-145.80;34.93
6615;BME280;3343;42.896;23.912;2023-04-06T11:13:49;72960.69;;;-145.80;35.38
6615;BME280;3343;42.896;23.912;2023-04-06T11:16:18;72952.69;;;-145.80;35.22
6615;BME280;3343;42.896;23.912;2023-04-06T11:18:53;72920.59;;;-145.80;35.81
6615;BME280;3343;42.896;23.912;2023-04-06T11:21:31;72926.63;;;-145.80;34.84
6615;BME280;3343;42.896;23.912;2023-04-06T11:24:04;72938.66;;;-145.80;34.49
6615;BME280;3343;42.896;23.912;2023-04-06T11:26:36;72964.72;;;-145.80;35.16
6615;BME280;3343;42.896;23.912;2023-04-06T11:29:04;72952.69;;;-145.80;34.53
6615;BME280;3343;42.896;23.912;2023-04-06T11:31:31;72940.66;;;-145.80;35.81
6615;BME280;3343;42.896;23.912;2023-04-06T11:34:09;72892.53;;;-145.80;35.00
6615;BME280;3343;42.896;23.912;2023-04-06T11:36:36;72936.63;;;-145.80;34.74
6615;BME280;3343;42.896;23.912;2023-04-06T11:39:03;72910.56;;;-145.80;34.26
6615;BME280;3343;42.896;23.912;2023-04-06T11:41:32;72890.50;;;-145.80;35.22
6615;BME280;3343;42.896;23.912;2023-04-06T11:44:01;72896.53;;;-145.80;35.40
6615;BME280;3343;42.896;23.912;2023-04-06T11:46:29;72936.63;;;-145.80;35.55
6615;BME280;3343;42.896;23.912;2023-04-06T11:48:58;72908.56;;;-145.80;35.31
6615;BME280;3343;42.896;23.912;2023-04-06T11:51:25;72902.53;;;-145.80;35.12
6615;BME280;3343;42.896;23.912;2023-04-06T11:53:53;72876.47;;;-145.80;34.10
6615;BME280;3343;42.896;23.912;2023-04-06T11:56:24;72830.34;;;-145.80;34.63
6615;BME280;3343;42.896;23.912;2023-04-06T11:58:52;72836.38;;;-145.80;33.95
6615;BME280;3343;42.896;23.912;2023-04-06T12:01:19;72860.44;;;-145.80;34.09
6615;BME280;3343;42.896;23.912;2023-04-06T12:03:47;72850.41;;;-145.80;34.42
6615;BME280;3343;42.896;23.912;2023-04-06T12:06:14;72892.53;;;-145.80;33.72
6615;BME280;3343;42.896;23.912;2023-04-06T12:08:41;72924.59;;;-145.80;34.79
6615;BME280;3343;42.896;23.912;2023-04-06T12:11:08;72948.66;;;-145.80;35.04
6615;BME280;3343;42.896;23.912;2023-04-06T12:13:35;72946.66;;;-145.80;35.08
6615;BME280;3343;42.896;23.912;2023-04-06T12:16:02;72912.56;;;-145.80;34.97
6615;BME280;3343;42.896;23.912;2023-04-06T12:18:30;72912.56;;;-145.80;35.33
6615;BME280;3343;42.896;23.912;2023-04-06T12:20:58;72902.53;;;-145.80;34.78
6615;BME280;3343;42.896;23.912;2023-04-06T12:23:25;72924.59;;;-145.80;34.93
6615;BME280;3343;42.896;23.912;2023-04-06T12:25:52;72928.63;;;-145.80;35.27
6615;BME280;3343;42.896;23.912;2023-04-06T12:28:21;72932.63;;;-145.80;34.89
6615;BME280;3343;42.896;23.912;2023-04-06T12:30:52;72958.69;;;-145.80;35.63
6615;BME280;3343;42.896;23.912;2023-04-06T12:33:19;72984.78;;;-145.80;35.95
6615;BME280;3343;42.896;23.912;2023-04-06T12:35:46;73018.88;;;-145.80;36.44
6615;BME280;3343;42.896;23.912;2023-04-06T12:38:14;73020.88;;;-145.80;36.94
6615;BME280;3343;42.896;23.912;2023-04-06T12:40:41;73026.88;;;-145.80;36.78
6615;BME280;3343;42.896;23.912;2023-04-06T12:43:08;73002.81;;;-145.80;36.80
6615;BME280;3343;42.896;23.912;2023-04-06T12:45:35;72982.75;;;-145.80;36.97
6615;BME280;3343;42.896;23.912;2023-04-06T12:48:02;72972.75;;;-145.80;36.22
6615;BME280;3343;42.896;23.912;2023-04-06T12:50:29;72982.75;;;-145.80;36.27
6615;BME280;3343;42.896;23.912;2023-04-06T12:52:56;73012.84;;;-145.80;35.49